Time;durP1;ratioP1;P1;durP2;ratioP2;P2;SDS_P1;SDS_P2;PMS_P1;PMS_P2;Temp;Humidity;BMP_temperature;BMP_pressure;BME280_temperature;BME280_humidity;BME280_pressure;Samples;Min_cycle;Max_cycle;Signal;HPM_P1;HPM_P2
2024/01/15 00:01:29;;;;;;;9.82;0.70;;;2.80;99.90;;;;;;5046737;28;20216;-70
2024/01/15 00:03:55;;;;;;;6.65;1.15;;;2.80;99.90;;;;;;5045388;28;20055;-69
2024/01/15 00:06:22;;;;;;;3.33;0.70;;;2.80;99.90;;;;;;5050290;28;20093;-70
2024/01/15 00:08:48;;;;;;;6.75;0.73;;;2.90;99.90;;;;;;5032883;28;20067;-70
2024/01/15 00:11:17;;;;;;;6.68;0.98;;;2.90;99.90;;;;;;5045060;28;20496;-70
2024/01/15 00:13:46;;;;;;;7.35;1.33;;;2.90;99.90;;;;;;5048511;28;20465;-70
2024/01/15 00:16:12;;;;;;;11.50;1.17;;;3.00;99.90;;;;;;5066552;28;20574;-70
2024/01/15 00:18:38;;;;;;;3.90;0.73;;;3.00;99.90;;;;;;5047349;28;20074;-70
2024/01/15 00:21:04;;;;;;;4.90;1.43;;;3.00;99.90;;;;;;5063089;28;20441;-70
2024/01/15 00:23:30;;;;;;;4.88;0.77;;;3.00;99.90;;;;;;5049544;28;20648;-70
2024/01/15 00:25:56;;;;;;;7.07;0.90;;;3.10;99.90;;;;;;5033630;28;20062;-70
2024/01/15 00:28:22;;;;;;;6.38;1.05;;;3.10;99.90;;;;;;5042567;28;20410;-70
2024/01/15 00:30:48;;;;;;;3.58;1.20;;;3.10;99.90;;;;;;5047813;28;20036;-69
2024/01/15 00:33:15;;;;;;;4.18;1.20;;;3.10;99.90;;;;;;5034954;28;20056;-70
2024/01/15 00:35:41;;;;;;;6.85;1.23;;;3.10;99.90;;;;;;5051056;28;20281;-71
2024/01/15 00:38:07;;;;;;;10.50;1.20;;;3.10;99.90;;;;;;5042508;28;20090;-70
2024/01/15 00:40:36;;;;;;;9.02;1.25;;;3.20;99.90;;;;;;5027572;28;20049;-70
2024/01/15 00:43:02;;;;;;;9.30;2.33;;;3.20;99.90;;;;;;5034666;28;20045;-70
2024/01/15 00:45:28;;;;;;;10.02;1.52;;;3.20;99.90;;;;;;5044553;28;20040;-69
2024/01/15 00:47:59;;;;;;;9.95;1.92;;;3.20;99.90;;;;;;5064954;28;20051;-68
2024/01/15 00:50:25;;;;;;;8.63;1.90;;;3.20;99.90;;;;;;5050098;28;20099;-69
2024/01/15 00:52:50;;;;;;;6.80;0.90;;;3.10;99.90;;;;;;5062577;28;20068;-69
2024/01/15 00:55:16;;;;;;;5.53;0.63;;;3.10;99.90;;;;;;5066445;28;20112;-68
2024/01/15 00:57:41;;;;;;;4.07;0.70;;;3.00;99.90;;;;;;5045887;28;20052;-68
2024/01/15 01:00:08;;;;;;;1.80;0.40;;;3.00;99.90;;;;;;5043907;28;20086;-69
2024/01/15 01:02:34;;;;;;;3.72;0.63;;;2.80;99.90;;;;;;5060370;28;20306;-68
2024/01/15 01:05:00;;;;;;;7.00;0.38;;;2.80;99.90;;;;;;5020307;28;20040;-68
2024/01/15 01:07:26;;;;;;;2.90;0.40;;;2.70;99.90;;;;;;5039149;28;20044;-69
2024/01/15 01:09:51;;;;;;;2.00;0.23;;;2.60;99.90;;;;;;5042580;28;20513;-68
2024/01/15 01:12:17;;;;;;;3.87;0.70;;;2.50;99.90;;;;;;5057997;28;20090;-69
2024/01/15 01:14:45;;;;;;;4.00;0.43;;;2.50;99.90;;;;;;5038509;28;20455;-68
2024/01/15 01:17:11;;;;;;;2.50;0.40;;;2.40;99.90;;;;;;5064117;28;20132;-68
2024/01/15 01:19:37;;;;;;;1.40;0.33;;;2.30;99.90;;;;;;5064514;28;20123;-68
2024/01/15 01:22:05;;;;;;;0.55;0.17;;;2.30;99.90;;;;;;5046826;28;20049;-68
2024/01/15 01:24:31;;;;;;;4.53;0.90;;;2.30;99.90;;;;;;5066566;28;20116;-68
2024/01/15 01:26:57;;;;;;;5.40;0.80;;;2.30;99.90;;;;;;5055472;28;20041;-68
2024/01/15 01:29:26;;;;;;;6.90;0.50;;;2.30;99.90;;;;;;5052089;28;20037;-67
2024/01/15 01:31:51;;;;;;;4.47;0.50;;;2.30;99.90;;;;;;5070261;28;20057;-68
2024/01/15 01:34:19;;;;;;;2.37;0.50;;;2.30;99.90;;;;;;5068784;28;20520;-68
2024/01/15 01:36:45;;;;;;;4.53;0.60;;;2.30;99.90;;;;;;5070376;28;20037;-68
2024/01/15 01:39:11;;;;;;;3.00;0.53;;;2.30;99.90;;;;;;5066826;28;20040;-68
2024/01/15 01:41:40;;;;;;;5.40;0.60;;;2.30;99.90;;;;;;5048418;28;20037;-68
2024/01/15 01:44:07;;;;;;;2.83;0.73;;;2.20;99.90;;;;;;5072042;28;20520;-68
2024/01/15 01:46:33;;;;;;;7.10;0.90;;;2.20;99.90;;;;;;5069596;28;20044;-68
2024/01/15 01:49:05;;;;;;;2.17;0.80;;;2.20;99.90;;;;;;5062526;28;20056;-68
2024/01/15 01:51:31;;;;;;;4.65;1.08;;;2.20;99.90;;;;;;5039384;28;20532;-68
2024/01/15 01:53:57;;;;;;;6.88;0.93;;;2.20;99.90;;;;;;5063631;28;20036;-68
2024/01/15 01:56:23;;;;;;;12.00;0.83;;;2.20;99.90;;;;;;5046579;28;20136;-68
2024/01/15 01:58:51;;;;;;;10.87;1.63;;;2.20;99.90;;;;;;5047641;28;20040;-68
2024/01/15 02:01:17;;;;;;;7.63;1.00;;;2.20;99.90;;;;;;5058903;28;20119;-68
2024/01/15 02:03:43;;;;;;;13.82;1.40;;;2.20;99.90;;;;;;5065880;28;20415;-68
2024/01/15 02:06:12;;;;;;;9.03;1.20;;;2.30;99.90;;;;;;5064780;28;20040;-68
2024/01/15 02:08:38;;;;;;;9.73;1.75;;;2.40;99.90;;;;;;5053364;28;20449;-67
2024/01/15 02:11:04;;;;;;;9.30;1.38;;;2.40;99.90;;;;;;5057832;28;20101;-68
2024/01/15 02:13:29;;;;;;;8.63;1.70;;;2.50;99.90;;;;;;5067741;28;20532;-68
2024/01/15 02:15:55;;;;;;;12.40;2.00;;;2.50;99.90;;;;;;5066990;28;20040;-67
2024/01/15 02:18:21;;;;;;;12.80;1.60;;;2.60;99.90;;;;;;5060214;28;20032;-67
2024/01/15 02:20:46;;;;;;;9.40;1.33;;;2.60;99.90;;;;;;5062661;28;20088;-68
2024/01/15 02:23:15;;;;;;;14.13;2.17;;;2.60;99.90;;;;;;5052241;28;20527;-68
2024/01/15 02:25:48;;;;;;;9.32;1.30;;;2.60;99.90;;;;;;5046197;28;20402;-68
2024/01/15 02:28:16;;;;;;;9.55;1.17;;;2.50;99.90;;;;;;5041931;28;20052;-68
2024/01/15 02:30:42;;;;;;;15.85;1.65;;;2.50;99.90;;;;;;5066342;28;20040;-68
2024/01/15 02:33:09;;;;;;;10.20;1.70;;;2.50;99.90;;;;;;5060450;28;20094;-68
2024/01/15 02:35:38;;;;;;;6.25;1.58;;;2.60;99.90;;;;;;5054865;28;20043;-68
2024/01/15 02:38:04;;;;;;;11.70;2.13;;;2.50;99.90;;;;;;5053813;28;20041;-68
2024/01/15 02:40:30;;;;;;;;;;;2.50;99.90;;;;;;5063387;28;20516;-68
2024/01/15 02:42:55;;;;;;;7.13;1.52;;;2.50;99.90;;;;;;5061292;28;19917;-68
2024/01/15 02:45:22;;;;;;;6.13;1.17;;;2.50;99.90;;;;;;5047808;28;20044;-68
2024/01/15 02:47:50;;;;;;;8.65;1.73;;;2.50;99.90;;;;;;5047018;28;20066;-68
2024/01/15 02:50:15;;;;;;;13.15;2.28;;;2.50;99.90;;;;;;5067925;28;20464;-68
2024/01/15 02:52:44;;;;;;;21.53;2.03;;;2.50;99.90;;;;;;5045976;28;20037;-68
2024/01/15 02:55:10;;;;;;;10.65;2.10;;;2.50;99.90;;;;;;5049137;28;20051;-68
2024/01/15 02:57:35;;;;;;;8.97;1.70;;;2.50;99.90;;;;;;5066078;28;20040;-68
2024/01/15 03:00:02;;;;;;;8.33;1.63;;;2.50;99.90;;;;;;5061038;28;20117;-68
2024/01/15 03:02:27;;;;;;;9.50;1.70;;;2.50;99.90;;;;;;5062410;28;20466;-72
2024/01/15 03:04:53;;;;;;;15.27;1.70;;;2.50;99.90;;;;;;5044358;28;20113;-73
2024/01/15 03:07:21;;;;;;;10.83;1.93;;;2.60;99.90;;;;;;5068201;28;20036;-73
2024/01/15 03:09:46;;;;;;;8.35;1.13;;;2.70;99.90;;;;;;5050297;28;20046;-73
2024/01/15 03:12:12;;;;;;;7.43;0.93;;;2.70;99.90;;;;;;5070681;28;20505;-72
2024/01/15 03:14:41;;;;;;;3.10;0.70;;;2.60;99.90;;;;;;5065566;28;20036;-74
2024/01/15 03:17:09;;;;;;;6.60;1.27;;;2.60;99.90;;;;;;5048881;28;20036;-74
2024/01/15 03:19:35;;;;;;;9.93;0.65;;;2.60;99.90;;;;;;5052629;28;20386;-72
2024/01/15 03:22:02;;;;;;;3.42;0.57;;;2.60;99.90;;;;;;5060717;28;20489;-75
2024/01/15 03:24:28;;;;;;;6.70;1.00;;;2.60;99.90;;;;;;5071077;28;20045;-73
2024/01/15 03:26:53;;;;;;;2.97;0.73;;;2.60;99.90;;;;;;5037946;28;20106;-72
2024/01/15 03:29:19;;;;;;;3.20;1.10;;;2.60;99.90;;;;;;5053968;28;20039;-73
2024/01/15 03:31:45;;;;;;;9.40;0.87;;;2.60;99.90;;;;;;5045863;28;20078;-72
2024/01/15 03:34:10;;;;;;;3.97;0.83;;;2.60;99.90;;;;;;5065332;28;20536;-72
2024/01/15 03:36:36;;;;;;;8.45;0.80;;;2.60;99.90;;;;;;5063998;28;20037;-72
2024/01/15 03:39:02;;;;;;;7.50;1.30;;;2.60;99.90;;;;;;5064837;28;20044;-73
2024/01/15 03:41:28;;;;;;;5.03;0.80;;;2.70;99.90;;;;;;5053620;28;20420;-71
2024/01/15 03:43:53;;;;;;;6.03;1.43;;;2.70;99.90;;;;;;5067043;28;20044;-72
2024/01/15 03:46:21;;;;;;;16.33;1.33;;;2.70;99.90;;;;;;5051686;28;20032;-73
2024/01/15 03:48:47;;;;;;;24.17;2.08;;;2.70;99.90;;;;;;5050339;28;20033;-72
2024/01/15 03:51:12;;;;;;;10.37;1.40;;;2.70;99.90;;;;;;5040088;28;20060;-72
2024/01/15 03:53:39;;;;;;;8.00;1.50;;;2.70;99.90;;;;;;5050202;28;20047;-72
2024/01/15 03:56:04;;;;;;;10.00;1.67;;;2.80;99.90;;;;;;5066979;28;20515;-73
2024/01/15 03:58:30;;;;;;;3.33;0.90;;;2.80;99.90;;;;;;5045841;28;20048;-72
2024/01/15 04:00:55;;;;;;;5.20;0.70;;;2.80;99.90;;;;;;5043479;28;20052;-72
2024/01/15 04:03:23;;;;;;;10.00;1.00;;;2.80;99.90;;;;;;5068791;28;20114;-75
2024/01/15 04:05:49;;;;;;;3.22;0.82;;;2.80;99.90;;;;;;5063592;28;20036;-73
2024/01/15 04:08:14;;;;;;;3.27;0.70;;;2.80;99.90;;;;;;5025206;28;20302;-71
2024/01/15 04:10:40;;;;;;;5.50;0.50;;;2.80;99.90;;;;;;5072417;28;20255;-72
2024/01/15 04:13:06;;;;;;;5.53;0.90;;;2.70;99.90;;;;;;5062825;28;20126;-73
2024/01/15 04:15:31;;;;;;;2.50;0.30;;;2.70;99.90;;;;;;5049858;28;20139;-72
2024/01/15 04:17:57;;;;;;;5.33;0.47;;;2.70;99.90;;;;;;5038971;28;20092;-72
2024/01/15 04:20:25;;;;;;;3.87;0.47;;;2.60;99.90;;;;;;5065832;28;20050;-74
2024/01/15 04:22:52;;;;;;;2.13;0.40;;;2.60;99.90;;;;;;5055446;28;20051;-72
2024/01/15 04:25:17;;;;;;;5.07;0.57;;;2.50;99.90;;;;;;5047518;28;20096;-73
2024/01/15 04:27:43;;;;;;;4.73;0.30;;;2.50;99.90;;;;;;5071132;28;20139;-72
2024/01/15 04:30:14;;;;;;;5.63;0.70;;;2.50;99.90;;;;;;5063871;28;20107;-74
2024/01/15 04:32:42;;;;;;;4.05;0.47;;;2.40;99.90;;;;;;5065318;28;20120;-71
2024/01/15 04:35:08;;;;;;;8.73;0.85;;;2.40;99.90;;;;;;5067290;28;20049;-74
2024/01/15 04:37:33;;;;;;;7.60;0.97;;;2.30;99.90;;;;;;5062341;28;20063;-74
2024/01/15 04:39:59;;;;;;;2.27;0.43;;;2.30;99.90;;;;;;5043450;28;20123;-71
2024/01/15 04:42:25;;;;;;;4.93;0.80;;;2.20;99.90;;;;;;5071451;28;20044;-73
2024/01/15 04:44:51;;;;;;;5.27;0.80;;;2.20;99.90;;;;;;5064522;28;20043;-71
2024/01/15 04:47:16;;;;;;;3.05;1.02;;;2.20;99.90;;;;;;5065768;28;20044;-72
2024/01/15 04:49:42;;;;;;;8.30;0.73;;;2.10;99.90;;;;;;5046822;28;20049;-72
2024/01/15 04:52:10;;;;;;;8.73;0.80;;;2.10;99.90;;;;;;5050229;28;20044;-71
2024/01/15 04:54:36;;;;;;;4.57;1.20;;;2.10;99.90;;;;;;5072718;28;20051;-71
2024/01/15 04:57:02;;;;;;;2.88;0.70;;;2.10;99.90;;;;;;5046441;28;20424;-71
2024/01/15 04:59:28;;;;;;;3.15;0.85;;;2.10;99.90;;;;;;5031683;28;20123;-70
2024/01/15 05:01:56;;;;;;;3.42;0.88;;;2.10;99.90;;;;;;5051597;28;20393;-71
2024/01/15 05:04:22;;;;;;;2.42;1.05;;;2.10;99.90;;;;;;5046545;28;20075;-72
2024/01/15 05:06:49;;;;;;;1.53;0.47;;;2.10;99.90;;;;;;5061825;28;21517;-73
2024/01/15 05:09:14;;;;;;;11.23;1.25;;;2.10;99.90;;;;;;5075036;28;20036;-70
2024/01/15 05:11:40;;;;;;;5.77;0.90;;;2.00;99.90;;;;;;5067941;28;20040;-74
2024/01/15 05:14:05;;;;;;;14.83;1.33;;;2.00;99.90;;;;;;5068168;28;20110;-70
2024/01/15 05:16:31;;;;;;;5.50;0.87;;;1.90;99.90;;;;;;5050850;28;20040;-72
2024/01/15 05:19:02;;;;;;;5.03;0.63;;;1.90;99.90;;;;;;5075578;28;20040;-73
2024/01/15 05:21:28;;;;;;;8.05;1.40;;;1.80;99.90;;;;;;5047692;28;20095;-74
2024/01/15 05:23:53;;;;;;;7.63;0.93;;;1.80;99.90;;;;;;5068032;28;20036;-71
2024/01/15 05:26:19;;;;;;;3.43;0.80;;;1.70;99.90;;;;;;5062309;28;21910;-66
2024/01/15 05:28:45;;;;;;;6.87;1.17;;;1.70;99.90;;;;;;5042768;28;20412;-66
2024/01/15 05:31:10;;;;;;;10.73;0.93;;;1.70;99.90;;;;;;5066416;28;20041;-68
2024/01/15 05:33:37;;;;;;;3.17;0.98;;;1.70;99.90;;;;;;5049256;28;20075;-75
2024/01/15 05:36:03;;;;;;;3.67;1.25;;;1.60;99.90;;;;;;5048125;28;20044;-68
2024/01/15 05:38:28;;;;;;;6.83;0.97;;;1.60;99.90;;;;;;5046835;28;20051;-68
2024/01/15 05:40:54;;;;;;;7.47;0.97;;;1.60;99.90;;;;;;5052927;28;20048;-68
2024/01/15 05:43:20;;;;;;;10.20;1.00;;;1.60;99.90;;;;;;5049694;28;20606;-68
2024/01/15 05:45:45;;;;;;;9.70;1.77;;;1.50;99.90;;;;;;5032884;28;20033;-68
2024/01/15 05:48:12;;;;;;;4.30;0.97;;;1.60;99.90;;;;;;5042490;28;20124;-68
2024/01/15 05:50:38;;;;;;;12.48;1.75;;;1.50;99.90;;;;;;5060605;28;20047;-68
2024/01/15 05:53:04;;;;;;;;;;;1.60;99.90;;;;;;5046321;28;20052;-68
2024/01/15 05:55:30;;;;;;;14.73;2.35;;;1.50;99.90;;;;;;5062572;28;20339;-68
2024/01/15 05:57:56;;;;;;;8.53;1.10;;;1.50;99.90;;;;;;5072085;28;20035;-68
2024/01/15 06:00:21;;;;;;;8.03;1.37;;;1.50;99.90;;;;;;5046941;28;20028;-68
2024/01/15 06:02:47;;;;;;;9.97;1.40;;;1.50;99.90;;;;;;5065002;28;20036;-68
2024/01/15 06:05:12;;;;;;;8.10;1.50;;;1.50;99.90;;;;;;5061886;28;20069;-68
2024/01/15 06:07:38;;;;;;;9.47;1.53;;;1.50;99.90;;;;;;5058419;28;20472;-68
2024/01/15 06:10:04;;;;;;;8.80;1.57;;;1.50;99.90;;;;;;5072000;28;20058;-68
2024/01/15 06:12:30;;;;;;;11.88;2.45;;;1.50;99.90;;;;;;5049339;28;20044;-68
2024/01/15 06:14:56;;;;;;;13.73;2.28;;;1.50;99.90;;;;;;5030305;28;20549;-67
2024/01/15 06:17:22;;;;;;;6.40;1.50;;;1.50;99.90;;;;;;5049567;28;20129;-68
2024/01/15 06:19:47;;;;;;;7.67;2.10;;;1.60;99.90;;;;;;5063554;28;20409;-68
2024/01/15 06:22:13;;;;;;;12.87;1.83;;;1.70;99.90;;;;;;5050640;28;20573;-68
2024/01/15 06:24:39;;;;;;;10.07;1.80;;;1.80;99.90;;;;;;5062242;28;20043;-68
2024/01/15 06:27:07;;;;;;;8.20;1.37;;;1.90;99.90;;;;;;5044255;28;20480;-68
2024/01/15 06:29:32;;;;;;;13.35;1.60;;;2.00;99.90;;;;;;5056796;28;20106;-68
2024/01/15 06:31:58;;;;;;;7.17;1.20;;;2.10;99.90;;;;;;5065896;28;20036;-67
2024/01/15 06:34:24;;;;;;;10.27;1.60;;;2.10;99.90;;;;;;5042604;28;20124;-68
2024/01/15 06:36:49;;;;;;;10.57;1.50;;;2.10;99.90;;;;;;5049908;28;20454;-68
2024/01/15 06:39:15;;;;;;;8.63;1.47;;;2.10;99.90;;;;;;5055316;28;20094;-68
2024/01/15 06:41:43;;;;;;;7.30;1.87;;;2.10;99.90;;;;;;5046807;28;20051;-68
2024/01/15 06:44:12;;;;;;;6.30;1.27;;;2.00;99.90;;;;;;5045034;28;20037;-68
2024/01/15 06:47:02;;;;;;;7.55;1.30;;;2.00;99.90;;;;;;5055968;28;20032;-71
2024/01/15 06:49:29;;;;;;;7.65;1.00;;;2.00;99.90;;;;;;5054868;28;20044;-75
2024/01/15 06:51:55;;;;;;;5.55;1.17;;;2.00;99.90;;;;;;5067399;28;20048;-68
2024/01/15 06:54:21;;;;;;;6.60;1.08;;;1.90;99.90;;;;;;5060527;28;20114;-68
2024/01/15 06:56:49;;;;;;;7.10;0.97;;;1.90;99.90;;;;;;5064127;28;20132;-69
2024/01/15 06:59:16;;;;;;;8.82;1.52;;;1.90;99.90;;;;;;5049120;28;20045;-74
2024/01/15 07:01:42;;;;;;;3.47;1.23;;;1.80;99.90;;;;;;5042100;28;20060;-68
2024/01/15 07:04:08;;;;;;;12.97;2.23;;;1.80;99.90;;;;;;5064576;28;20046;-68
2024/01/15 07:06:33;;;;;;;6.63;2.37;;;1.80;99.90;;;;;;5061699;28;20048;-68
2024/01/15 07:08:59;;;;;;;5.23;1.77;;;1.80;99.90;;;;;;5046197;28;20510;-68
2024/01/15 07:11:25;;;;;;;9.25;1.67;;;1.70;99.90;;;;;;5049391;28;20405;-68
2024/01/15 07:13:51;;;;;;;5.60;1.47;;;1.70;99.90;;;;;;5062393;28;20041;-68
2024/01/15 07:16:19;;;;;;;6.50;2.00;;;1.70;99.90;;;;;;5061903;28;20044;-69
2024/01/15 07:18:44;;;;;;;7.43;1.23;;;1.70;99.90;;;;;;5048016;28;20048;-68
2024/01/15 07:21:10;;;;;;;6.60;1.60;;;1.70;99.90;;;;;;5066420;28;20044;-68
2024/01/15 07:23:36;;;;;;;7.80;1.50;;;1.80;99.90;;;;;;5055893;28;20056;-68
2024/01/15 07:26:02;;;;;;;5.03;1.33;;;1.80;99.90;;;;;;5062366;28;20352;-68
2024/01/15 07:28:30;;;;;;;3.78;1.02;;;1.70;99.90;;;;;;5060531;28;20143;-68
2024/01/15 07:30:57;;;;;;;8.68;1.05;;;1.70;99.90;;;;;;5042159;28;20048;-74
2024/01/15 07:33:22;;;;;;;15.32;1.75;;;1.80;99.90;;;;;;5043220;28;20577;-68
2024/01/15 07:35:48;;;;;;;11.73;1.53;;;1.80;99.90;;;;;;5063556;28;20068;-68
2024/01/15 07:38:13;;;;;;;7.87;1.13;;;1.80;99.90;;;;;;5066638;28;20153;-68
2024/01/15 07:40:39;;;;;;;8.30;1.00;;;1.80;99.90;;;;;;5057361;28;20041;-68
2024/01/15 07:43:07;;;;;;;6.07;1.00;;;1.80;99.90;;;;;;5037869;28;20028;-71
2024/01/15 07:45:33;;;;;;;7.10;1.90;;;1.80;99.90;;;;;;5032615;28;20028;-71
2024/01/15 07:47:59;;;;;;;6.20;0.97;;;1.80;99.90;;;;;;5044077;28;20041;-71
2024/01/15 07:50:24;;;;;;;11.63;1.20;;;1.80;99.90;;;;;;5060169;28;20033;-70
2024/01/15 07:52:50;;;;;;;11.23;1.30;;;1.80;99.90;;;;;;5049687;28;20485;-68
2024/01/15 07:55:16;;;;;;;7.67;1.23;;;1.90;99.90;;;;;;5049027;28;20480;-68
2024/01/15 07:57:41;;;;;;;9.27;1.43;;;1.80;99.90;;;;;;5040314;28;20044;-68
2024/01/15 08:00:09;;;;;;;8.60;2.27;;;1.80;99.90;;;;;;5042656;28;20086;-68
2024/01/15 08:02:34;;;;;;;8.40;1.42;;;1.80;99.90;;;;;;5043311;28;20108;-68
2024/01/15 08:05:00;;;;;;;6.27;1.33;;;1.90;99.90;;;;;;5046768;28;20560;-68
2024/01/15 08:07:26;;;;;;;9.63;0.97;;;1.90;99.90;;;;;;5052464;28;20136;-68
2024/01/15 08:09:52;;;;;;;2.63;0.50;;;1.90;99.90;;;;;;5069362;28;20051;-68
2024/01/15 08:12:18;;;;;;;6.65;2.05;;;1.90;99.90;;;;;;5063627;28;20036;-68
2024/01/15 08:14:45;;;;;;;6.63;0.70;;;1.90;99.90;;;;;;5034263;28;20046;-68
2024/01/15 08:17:10;;;;;;;;;;;1.90;99.90;;;;;;5071988;28;20040;-68
2024/01/15 08:19:36;;;;;;;4.57;0.93;;;1.90;99.90;;;;;;5063749;28;19916;-68
2024/01/15 08:22:02;;;;;;;4.27;1.07;;;1.90;99.90;;;;;;5050753;28;20051;-68
2024/01/15 08:24:28;;;;;;;5.73;0.80;;;1.90;99.90;;;;;;5053981;28;20039;-68
2024/01/15 08:26:54;;;;;;;9.65;1.23;;;1.90;99.90;;;;;;5051882;28;20068;-68
2024/01/15 08:29:20;;;;;;;2.97;0.97;;;1.90;99.90;;;;;;5037707;28;20846;-71
2024/01/15 08:31:46;;;;;;;;;;;2.00;99.90;;;;;;5035891;28;20358;-71
2024/01/15 08:34:12;;;;;;;4.00;0.50;;;2.00;99.90;;;;;;5040772;28;19938;-68
2024/01/15 08:36:38;;;;;;;7.80;0.80;;;2.10;99.90;;;;;;5064392;28;20496;-68
2024/01/15 08:39:04;;;;;;;0.90;0.50;;;2.10;99.90;;;;;;5053569;28;20497;-68
2024/01/15 08:41:32;;;;;;;2.08;0.73;;;2.20;99.90;;;;;;5028236;28;20350;-68
2024/01/15 08:43:58;;;;;;;8.80;0.90;;;2.20;99.90;;;;;;5042211;28;20045;-68
2024/01/15 08:46:24;;;;;;;2.87;0.40;;;2.20;99.90;;;;;;5068834;28;20458;-68
2024/01/15 08:48:50;;;;;;;2.65;0.90;;;2.30;99.90;;;;;;5029755;28;20118;-68
2024/01/15 08:51:15;;;;;;;6.17;2.00;;;2.20;99.90;;;;;;5068224;28;20056;-68
2024/01/15 08:53:41;;;;;;;6.67;1.87;;;2.20;99.90;;;;;;5049671;28;20063;-68
2024/01/15 08:56:08;;;;;;;6.20;1.47;;;2.20;99.90;;;;;;5067827;28;20047;-68
2024/01/15 08:58:34;;;;;;;5.22;1.10;;;2.10;99.90;;;;;;5064966;28;20037;-69
2024/01/15 09:01:00;;;;;;;9.48;0.90;;;2.10;99.90;;;;;;5060355;28;20078;-69
2024/01/15 09:03:25;;;;;;;9.33;1.47;;;2.10;99.90;;;;;;5059725;28;20467;-70
2024/01/15 09:05:51;;;;;;;5.57;0.70;;;2.10;99.90;;;;;;5065315;28;20493;-69
2024/01/15 09:08:17;;;;;;;5.53;1.00;;;2.10;99.90;;;;;;5045949;28;20093;-69
2024/01/15 09:10:42;;;;;;;2.63;0.60;;;2.10;99.90;;;;;;5064468;28;20044;-69
2024/01/15 09:13:08;;;;;;;6.93;0.80;;;2.20;99.90;;;;;;5045401;28;20045;-69
2024/01/15 09:15:34;;;;;;;5.40;1.27;;;2.20;99.90;;;;;;5047417;28;20044;-68
2024/01/15 09:18:01;;;;;;;6.07;1.23;;;2.30;99.90;;;;;;5046337;28;20174;-68
2024/01/15 09:20:27;;;;;;;7.53;1.38;;;2.40;99.90;;;;;;5063202;28;20428;-68
2024/01/15 09:22:53;;;;;;;9.30;1.38;;;2.50;99.90;;;;;;5042712;28;20037;-69
2024/01/15 09:25:19;;;;;;;9.27;1.47;;;2.50;99.90;;;;;;5047373;28;20036;-69
2024/01/15 09:27:45;;;;;;;4.70;0.90;;;2.60;99.90;;;;;;5063743;28;20033;-68
2024/01/15 09:30:11;;;;;;;3.73;0.70;;;2.60;99.90;;;;;;5061736;28;20041;-69
2024/01/15 09:32:37;;;;;;;6.43;0.88;;;2.60;99.90;;;;;;5039582;28;20171;-68
2024/01/15 09:35:02;;;;;;;8.15;0.82;;;2.50;99.90;;;;;;5046478;28;20105;-68
2024/01/15 09:37:28;;;;;;;4.17;0.93;;;2.50;99.90;;;;;;5063856;28;20044;-69
2024/01/15 09:39:55;;;;;;;5.43;1.70;;;2.40;99.90;;;;;;5061149;28;20416;-68
2024/01/15 09:42:23;;;;;;;6.30;1.75;;;2.40;99.90;;;;;;5063715;28;20382;-69
2024/01/15 09:44:49;;;;;;;3.22;1.00;;;2.40;99.90;;;;;;5046110;28;20550;-69
2024/01/15 09:47:16;;;;;;;4.93;1.13;;;2.50;99.90;;;;;;5048654;28;20043;-68
2024/01/15 09:49:42;;;;;;;;;;;2.60;99.90;;;;;;5059864;28;20049;-69
2024/01/15 09:52:09;;;;;;;6.63;1.10;;;2.70;99.90;;;;;;5046935;28;20384;-72
2024/01/15 09:54:34;;;;;;;5.88;1.65;;;2.80;99.90;;;;;;5047932;28;20094;-74
2024/01/15 09:57:01;;;;;;;8.27;0.80;;;2.90;99.90;;;;;;5048796;28;20076;-69
2024/01/15 09:59:28;;;;;;;6.70;0.93;;;3.00;99.90;;;;;;5061401;28;20404;-69
2024/01/15 10:01:54;;;;;;;4.53;0.57;;;3.10;99.90;;;;;;5044394;28;20049;-69
2024/01/15 10:04:19;;;;;;;4.45;0.93;;;3.20;99.90;;;;;;5061449;28;20051;-69
2024/01/15 10:06:47;;;;;;;9.67;1.37;;;3.30;99.90;;;;;;5066769;28;20400;-69
2024/01/15 10:09:16;;;;;;;4.03;0.50;;;3.30;99.90;;;;;;5048874;28;20055;-69
2024/01/15 10:11:42;;;;;;;4.93;0.50;;;3.30;99.90;;;;;;5040407;28;20047;-69
2024/01/15 10:14:12;;;;;;;7.05;0.98;;;3.30;99.90;;;;;;5041925;28;20055;-68
2024/01/15 10:16:39;;;;;;;6.90;0.75;;;3.40;99.90;;;;;;5030495;28;20068;-68
2024/01/15 10:19:04;;;;;;;;;;;3.40;99.90;;;;;;5056612;28;20139;-68
2024/01/15 10:21:34;;;;;;;2.28;0.60;;;3.40;99.90;;;;;;5058576;28;19924;-69
2024/01/15 10:24:00;;;;;;;4.00;0.68;;;3.40;99.90;;;;;;5048444;28;20060;-68
2024/01/15 10:26:26;;;;;;;6.38;0.77;;;3.40;99.90;;;;;;5044426;28;20051;-69
2024/01/15 10:28:54;;;;;;;4.70;0.50;;;3.40;99.90;;;;;;5046514;28;20052;-68
2024/01/15 10:31:21;;;;;;;4.55;0.70;;;3.30;99.90;;;;;;5053569;28;20685;-69
2024/01/15 10:33:48;;;;;;;3.90;0.80;;;3.30;99.90;;;;;;5046585;28;20467;-70
2024/01/15 10:36:16;;;;;;;4.90;0.60;;;3.20;99.90;;;;;;5065944;28;20048;-68
2024/01/15 10:38:45;;;;;;;3.85;0.50;;;3.20;99.90;;;;;;5046362;28;20041;-69
2024/01/15 10:41:11;;;;;;;2.95;0.70;;;3.20;99.90;;;;;;5047095;28;20053;-69
2024/01/15 10:43:37;;;;;;;4.32;0.52;;;3.10;99.90;;;;;;5056573;28;20090;-69
2024/01/15 10:46:03;;;;;;;1.70;0.37;;;3.10;99.90;;;;;;5038758;28;20428;-68
2024/01/15 10:48:30;;;;;;;4.47;0.95;;;3.00;99.90;;;;;;5040405;28;20039;-68
2024/01/15 10:50:57;;;;;;;6.43;0.80;;;2.90;99.90;;;;;;5063387;28;20058;-69
2024/01/15 10:53:24;;;;;;;2.80;0.52;;;2.90;99.90;;;;;;5060678;28;20170;-68
2024/01/15 10:55:51;;;;;;;1.60;0.60;;;2.90;99.90;;;;;;5031838;28;20040;-69
2024/01/15 10:58:18;;;;;;;5.10;1.00;;;2.90;99.90;;;;;;5047931;28;20045;-69
2024/01/15 11:00:43;;;;;;;;;;;2.90;99.90;;;;;;5031462;28;20121;-68
2024/01/15 11:03:10;;;;;;;5.28;0.93;;;2.90;99.90;;;;;;5063715;28;19916;-69
2024/01/15 11:05:39;;;;;;;6.05;0.90;;;2.90;99.90;;;;;;5065290;28;20044;-69
2024/01/15 11:08:08;;;;;;;6.25;0.75;;;2.90;99.90;;;;;;5042035;28;20041;-69
2024/01/15 11:10:51;;;;;;;4.97;1.08;;;2.90;99.90;;;;;;5055236;28;20088;-69
2024/01/15 11:13:32;;;;;;;7.72;1.13;;;3.00;99.90;;;;;;5042138;28;20071;-69
2024/01/15 11:15:58;;;;;;;5.88;0.88;;;3.00;99.90;;;;;;5045318;28;20033;-69
2024/01/15 11:18:24;;;;;;;5.97;0.70;;;3.10;99.90;;;;;;5045771;28;20044;-69
2024/01/15 11:21:17;;;;;;;2.40;0.40;;;3.20;99.90;;;;;;5045514;28;20045;-69
2024/01/15 11:23:47;;;;;;;2.65;0.47;;;3.20;99.90;;;;;;5054323;28;20420;-69
2024/01/15 11:26:41;;;;;;;3.75;0.30;;;3.10;99.90;;;;;;5023688;28;20041;-69
2024/01/15 11:29:09;;;;;;;1.20;0.43;;;3.20;99.90;;;;;;5046150;28;20395;-70
2024/01/15 11:31:40;;;;;;;2.10;0.32;;;3.30;99.90;;;;;;5041865;28;20119;-70
2024/01/15 11:34:11;;;;;;;2.95;0.55;;;3.20;99.90;;;;;;5034244;28;20499;-70
2024/01/15 11:36:45;;;;;;;5.68;0.93;;;3.10;99.90;;;;;;5024261;28;20409;-69
2024/01/15 11:39:32;;;;;;;2.60;1.08;;;3.00;99.90;;;;;;5068426;28;20121;-69
2024/01/15 11:41:58;;;;;;;6.28;0.80;;;2.70;99.90;;;;;;5047780;28;20099;-69
2024/01/15 11:44:25;;;;;;;7.75;1.23;;;2.50;99.90;;;;;;5067266;28;20510;-69
2024/01/15 11:46:57;;;;;;;5.18;0.73;;;2.30;99.90;;;;;;5062034;28;20120;-69
2024/01/15 11:49:52;;;;;;;5.63;0.60;;;2.20;99.90;;;;;;5050505;28;20048;-69
2024/01/15 11:52:18;;;;;;;5.82;0.80;;;2.10;99.90;;;;;;5042516;28;20045;-69
2024/01/15 11:54:48;;;;;;;;;;;2.00;99.90;;;;;;5045715;28;20044;-69
2024/01/15 11:57:44;;;;;;;2.05;0.60;;;2.00;99.90;;;;;;5064255;28;19928;-69
2024/01/15 12:00:12;;;;;;;4.85;0.68;;;2.10;99.90;;;;;;5037461;28;20056;-69
2024/01/15 12:02:42;;;;;;;8.68;0.93;;;2.10;99.90;;;;;;5050099;28;20041;-69
2024/01/15 12:05:09;;;;;;;3.95;0.80;;;2.20;99.90;;;;;;5062457;28;20411;-69
2024/01/15 12:07:34;;;;;;;4.72;0.68;;;2.20;99.90;;;;;;5046989;28;20071;-70
2024/01/15 12:10:01;;;;;;;5.73;1.20;;;2.20;99.90;;;;;;5051457;28;20452;-69
2024/01/15 12:12:46;;;;;;;;;;;2.30;99.90;;;;;;5056973;28;20127;-74
2024/01/15 12:15:11;;;;;;;10.02;1.08;;;2.40;99.90;;;;;;5063545;28;19923;-69
2024/01/15 12:17:38;;;;;;;5.23;0.80;;;2.50;99.90;;;;;;5048090;28;20552;-72
2024/01/15 12:20:07;;;;;;;6.28;1.10;;;2.50;99.90;;;;;;5044560;28;20068;-72
2024/01/15 12:22:33;;;;;;;7.05;0.93;;;2.60;99.90;;;;;;5051482;28;20052;-72
2024/01/15 12:24:58;;;;;;;4.60;0.52;;;2.70;99.90;;;;;;5028019;28;20041;-75
2024/01/15 12:27:24;;;;;;;7.50;0.70;;;2.80;99.90;;;;;;5046296;28;20047;-71
2024/01/15 12:29:50;;;;;;;5.22;0.82;;;3.10;99.90;;;;;;5050591;28;20158;-71
2024/01/15 12:32:16;;;;;;;7.37;0.70;;;3.30;99.90;;;;;;5052246;28;20532;-73
2024/01/15 12:34:43;;;;;;;7.13;0.98;;;3.40;99.90;;;;;;5065788;28;23199;-70
2024/01/15 12:37:09;;;;;;;10.00;1.52;;;3.50;99.90;;;;;;5040060;28;20048;-70
2024/01/15 12:39:35;;;;;;;3.57;0.80;;;3.50;99.90;;;;;;5080229;28;20203;-71
2024/01/15 12:42:02;;;;;;;2.75;0.50;;;3.30;99.90;;;;;;5041374;28;20456;-71
2024/01/15 12:44:28;;;;;;;;;;;3.10;99.90;;;;;;5061195;28;20116;-70
2024/01/15 12:46:54;;;;;;;5.78;0.95;;;3.10;99.90;;;;;;5049035;28;20266;-70
2024/01/15 12:49:19;;;;;;;1.53;0.83;;;3.10;99.90;;;;;;5073627;28;20039;-70
2024/01/15 12:51:56;;;;;;;1.80;0.60;;;3.20;99.90;;;;;;5065606;28;20071;-71
2024/01/15 12:54:23;;;;;;;5.70;0.70;;;3.20;99.90;;;;;;5052371;28;20045;-71
2024/01/15 12:56:50;;;;;;;3.67;1.23;;;3.20;99.90;;;;;;5049266;28;20082;-73